createdAt,value
2022-08-12T00:00:44.446Z,99.90
2022-08-12T00:03:30.346Z,99.90
2022-08-12T00:06:17.134Z,99.90
2022-08-12T00:09:02.853Z,99.90
2022-08-12T00:11:48.618Z,99.90
2022-08-12T00:14:34.217Z,99.90
2022-08-12T00:17:22.778Z,99.90
2022-08-12T00:20:09.788Z,99.90
2022-08-12T00:22:58.962Z,99.90
2022-08-12T00:26:21.589Z,99.90
2022-08-12T00:29:11.237Z,99.90
2022-08-12T00:31:57.535Z,99.90
2022-08-12T00:34:43.385Z,99.90
2022-08-12T00:37:29.095Z,99.90
2022-08-12T00:40:15.960Z,99.90
2022-08-12T00:42:43.569Z,99.90
2022-08-12T00:45:11.281Z,99.90
2022-08-12T00:47:39.830Z,99.90
2022-08-12T00:50:08.505Z,99.90
2022-08-12T00:52:36.483Z,99.90
2022-08-12T00:55:05.789Z,99.90
2022-08-12T00:57:37.188Z,99.90
2022-08-12T01:00:09.985Z,99.90
2022-08-12T01:02:49.025Z,99.90
2022-08-12T01:05:37.558Z,99.90
2022-08-12T01:08:24.264Z,99.90
2022-08-12T01:11:10.863Z,99.90
2022-08-12T01:13:42.763Z,99.90
2022-08-12T01:16:12.253Z,99.90
2022-08-12T01:18:40.945Z,99.90
2022-08-12T01:21:26.837Z,99.90
2022-08-12T01:24:38.055Z,99.90
2022-08-12T01:27:10.425Z,99.90
2022-08-12T01:29:44.158Z,99.90
2022-08-12T01:32:14.670Z,99.90
2022-08-12T01:34:51.172Z,99.90
2022-08-12T01:37:22.624Z,99.90
2022-08-12T01:40:31.518Z,99.90
2022-08-12T01:42:50.811Z,99.90
2022-08-12T01:45:24.985Z,99.90
2022-08-12T01:48:11.333Z,99.90
2022-08-12T01:51:05.303Z,99.90
2022-08-12T01:53:57.612Z,99.90
2022-08-12T01:56:31.016Z,99.90
2022-08-12T01:59:21.043Z,99.90
2022-08-12T02:01:54.325Z,99.90
2022-08-12T02:05:09.687Z,99.90
2022-08-12T02:08:14.506Z,99.90
2022-08-12T02:11:18.792Z,99.90
2022-08-12T02:14:04.541Z,99.90
2022-08-12T02:16:46.983Z,99.90
2022-08-12T02:19:47.344Z,99.90
2022-08-12T02:22:30.062Z,99.90
2022-08-12T02:25:01.943Z,99.90
2022-08-12T02:27:37.663Z,99.90
2022-08-12T02:30:09.227Z,99.90
2022-08-12T02:32:42.398Z,99.90
2022-08-12T02:35:19.883Z,99.90
2022-08-12T02:37:54.434Z,99.90
2022-08-12T02:40:23.405Z,99.90
2022-08-12T02:43:04.674Z,99.90
2022-08-12T02:45:38.503Z,99.90
2022-08-12T02:48:09.560Z,99.90
2022-08-12T02:50:44.984Z,99.90
2022-08-12T02:53:13.172Z,99.90
2022-08-12T02:55:41.367Z,99.90
2022-08-12T02:58:12.654Z,99.90
2022-08-12T03:00:44.495Z,99.90
2022-08-12T03:03:14.094Z,99.90
2022-08-12T03:05:54.743Z,99.90
2022-08-12T03:08:31.854Z,99.90
2022-08-12T03:11:15.429Z,99.90
2022-08-12T03:13:53.943Z,99.90
2022-08-12T03:16:21.850Z,99.90
2022-08-12T03:18:51.741Z,99.90
2022-08-12T03:21:55.418Z,99.90
2022-08-12T03:24:09.703Z,99.90
2022-08-12T03:26:38.251Z,99.90
2022-08-12T03:29:08.318Z,99.90
2022-08-12T03:31:35.983Z,99.90
2022-08-12T03:34:08.664Z,99.90
2022-08-12T03:36:37.877Z,99.90
2022-08-12T03:39:16.295Z,99.90
2022-08-12T03:41:52.707Z,99.90
2022-08-12T03:44:38.823Z,99.90
2022-08-12T03:47:37.123Z,99.90
2022-08-12T03:50:24.224Z,99.90
2022-08-12T03:53:09.996Z,99.90
2022-08-12T03:55:56.100Z,99.90
2022-08-12T03:58:41.891Z,99.90
2022-08-12T04:01:09.418Z,99.90
2022-08-12T04:03:52.994Z,99.90
2022-08-12T04:06:35.379Z,99.90
2022-08-12T04:09:15.846Z,99.90
2022-08-12T04:12:04.327Z,99.90
2022-08-12T04:14:33.172Z,99.90
2022-08-12T04:17:01.524Z,99.90
2022-08-12T04:19:29.602Z,99.90
2022-08-12T04:22:01.347Z,99.90
2022-08-12T04:24:32.283Z,99.90
2022-08-12T04:26:59.695Z,99.90
2022-08-12T04:30:29.786Z,99.90
2022-08-12T04:32:15.918Z,99.90
2022-08-12T04:34:44.616Z,99.90
2022-08-12T04:37:13.303Z,99.90
2022-08-12T04:39:41.251Z,99.90
2022-08-12T04:42:08.703Z,99.90
2022-08-12T04:44:36.243Z,99.90
2022-08-12T04:47:04.065Z,99.90
2022-08-12T04:49:34.923Z,99.90
2022-08-12T04:52:03.557Z,99.90
2022-08-12T04:54:33.735Z,99.90
2022-08-12T04:57:03.781Z,99.90
2022-08-12T04:59:47.168Z,99.90
2022-08-12T05:02:22.373Z,99.90
2022-08-12T05:04:52.121Z,99.90
2022-08-12T05:07:20.851Z,99.90
2022-08-12T05:10:18.566Z,99.90
2022-08-12T05:12:58.064Z,99.90
2022-08-12T05:15:29.241Z,99.90
2022-08-12T05:17:59.909Z,99.90
2022-08-12T05:20:30.022Z,99.90
2022-08-12T05:23:15.924Z,99.90
2022-08-12T05:25:47.845Z,99.90
2022-08-12T05:28:16.944Z,99.90
2022-08-12T05:30:45.842Z,99.90
2022-08-12T05:33:15.732Z,99.90
2022-08-12T05:35:45.966Z,99.90
2022-08-12T05:38:36.646Z,99.90
2022-08-12T05:41:06.645Z,99.90
2022-08-12T05:43:37.523Z,99.90
2022-08-12T05:46:06.625Z,99.90
2022-08-12T05:48:39.964Z,99.90
2022-08-12T05:51:07.657Z,99.90
2022-08-12T05:53:35.417Z,99.90
2022-08-12T05:56:11.624Z,99.90
2022-08-12T05:58:39.065Z,99.90
2022-08-12T06:02:09.836Z,99.90
2022-08-12T06:03:56.905Z,99.90
2022-08-12T06:06:27.581Z,99.90
2022-08-12T06:08:55.888Z,99.90
2022-08-12T06:11:25.160Z,99.90
2022-08-12T06:13:55.711Z,99.90
2022-08-12T06:16:25.785Z,99.90
2022-08-12T06:18:54.865Z,99.90
2022-08-12T06:21:23.667Z,99.90
2022-08-12T06:23:53.184Z,99.90
2022-08-12T06:26:20.987Z,99.90
2022-08-12T06:28:51.754Z,99.90
2022-08-12T06:31:42.993Z,99.90
2022-08-12T06:35:25.467Z,99.90
2022-08-12T06:37:01.243Z,99.90
2022-08-12T06:39:28.699Z,99.90
2022-08-12T06:42:32.165Z,99.90
2022-08-12T06:45:02.309Z,98.90
2022-08-12T06:47:29.706Z,99.30
2022-08-12T06:49:58.038Z,98.00
2022-08-12T06:52:25.608Z,98.50
2022-08-12T06:54:53.864Z,97.40
2022-08-12T06:58:08.294Z,97.30
2022-08-12T07:00:11.751Z,97.00
2022-08-12T07:02:39.463Z,97.00
2022-08-12T07:05:07.219Z,96.10
2022-08-12T07:07:34.825Z,96.20
2022-08-12T07:10:07.759Z,95.50
2022-08-12T07:12:37.124Z,95.50
2022-08-12T07:15:05.022Z,95.70
2022-08-12T07:17:37.708Z,95.80
2022-08-12T07:20:29.790Z,95.40
2022-08-12T07:22:59.310Z,94.60
2022-08-12T07:25:40.941Z,96.50
2022-08-12T07:28:18.452Z,97.40
2022-08-12T07:30:49.330Z,97.40
2022-08-12T07:33:18.824Z,95.40
2022-08-12T07:35:48.496Z,94.10
2022-08-12T07:38:29.773Z,93.60
2022-08-12T07:41:05.745Z,94.20
2022-08-12T07:43:38.860Z,94.50
2022-08-12T07:46:08.444Z,96.10
2022-08-12T07:48:49.546Z,96.20
2022-08-12T07:51:25.182Z,94.70
2022-08-12T07:54:01.108Z,93.80
2022-08-12T07:56:31.569Z,92.10
2022-08-12T07:59:01.491Z,92.70
2022-08-12T08:01:29.472Z,91.80
2022-08-12T08:04:19.354Z,91.90
2022-08-12T08:06:48.558Z,90.70
2022-08-12T08:09:19.772Z,90.40
2022-08-12T08:12:05.785Z,91.70
2022-08-12T08:14:33.292Z,91.10
2022-08-12T08:17:03.562Z,90.90
2022-08-12T08:20:03.324Z,91.30
2022-08-12T08:22:25.018Z,90.70
2022-08-12T08:25:34.351Z,90.90
2022-08-12T08:28:19.087Z,91.90
2022-08-12T08:30:50.392Z,92.10
2022-08-12T08:33:22.570Z,91.40
2022-08-12T08:36:23.499Z,91.30
2022-08-12T08:38:58.630Z,92.30
2022-08-12T08:42:14.155Z,93.60
2022-08-12T08:44:40.583Z,93.70
2022-08-12T08:47:09.764Z,93.40
2022-08-12T08:49:38.331Z,94.30
2022-08-12T08:52:07.461Z,94.40
2022-08-12T08:54:35.093Z,96.70
2022-08-12T08:57:04.237Z,94.40
2022-08-12T08:59:31.841Z,94.70
2022-08-12T09:01:59.893Z,94.90
2022-08-12T09:05:12.131Z,96.70
2022-08-12T09:13:23.781Z,97.80
2022-08-12T09:15:59.584Z,98.20
2022-08-12T09:18:33.290Z,98.60
2022-08-12T09:23:59.705Z,99.60
2022-08-12T09:26:46.115Z,99.90
2022-08-12T09:30:09.747Z,99.90
2022-08-12T09:32:29.321Z,99.90
2022-08-12T09:34:57.475Z,99.90
2022-08-12T09:37:26.861Z,99.90
2022-08-12T09:40:05.533Z,99.90
2022-08-12T09:43:15.434Z,99.90
2022-08-12T09:46:06.761Z,99.90
2022-08-12T09:48:39.243Z,99.90
2022-08-12T09:51:17.211Z,99.90
2022-08-12T09:54:08.348Z,99.90
2022-08-12T09:57:00.737Z,99.90
2022-08-12T10:00:12.641Z,99.90
2022-08-12T10:02:45.070Z,99.90
2022-08-12T10:05:09.335Z,99.90
2022-08-12T10:07:41.049Z,99.90
2022-08-12T10:10:23.071Z,99.90
2022-08-12T10:13:17.169Z,99.90
2022-08-12T10:16:05.022Z,99.90
2022-08-12T10:18:52.217Z,99.90
2022-08-12T10:25:17.849Z,99.90
2022-08-12T10:28:08.349Z,99.90
2022-08-12T10:30:46.751Z,99.90
2022-08-12T10:33:31.697Z,99.90
2022-08-12T10:36:02.073Z,99.90
2022-08-12T10:38:34.302Z,99.90
2022-08-12T10:41:57.460Z,99.90
2022-08-12T10:44:17.235Z,99.90
2022-08-12T10:46:49.268Z,99.90
2022-08-12T10:50:03.521Z,99.90
2022-08-12T10:52:34.427Z,99.90
2022-08-12T10:54:56.309Z,99.90
2022-08-12T10:58:15.561Z,99.90
2022-08-12T11:00:34.539Z,99.90
2022-08-12T11:04:31.874Z,99.90
2022-08-12T11:07:07.998Z,99.90
2022-08-12T11:08:58.385Z,99.90
2022-08-12T11:12:08.356Z,99.90
2022-08-12T11:14:49.138Z,99.90
2022-08-12T11:17:44.088Z,99.90
2022-08-12T11:20:06.782Z,99.90
2022-08-12T11:22:35.590Z,99.90
2022-08-12T11:25:10.647Z,99.90
2022-08-12T11:27:38.985Z,99.90
2022-08-12T11:30:30.446Z,99.90
2022-08-12T11:32:54.805Z,99.90
2022-08-12T11:35:24.944Z,99.90
2022-08-12T11:37:59.035Z,99.90
2022-08-12T11:40:28.535Z,99.90
2022-08-12T11:43:18.568Z,99.90
2022-08-12T11:46:03.890Z,99.90
2022-08-12T11:48:52.241Z,99.90
2022-08-12T11:51:21.437Z,99.90
2022-08-12T11:53:59.654Z,99.90
2022-08-12T11:56:38.480Z,99.90
2022-08-12T12:05:41.897Z,99.90
2022-08-12T12:08:37.129Z,99.90
2022-08-12T12:11:10.008Z,99.90
2022-08-12T12:14:08.228Z,99.90
2022-08-12T12:16:25.523Z,99.90
2022-08-12T12:18:53.147Z,99.90
2022-08-12T12:21:48.017Z,99.90
2022-08-12T12:24:13.620Z,99.90
2022-08-12T12:27:04.222Z,99.90
2022-08-12T12:30:18.782Z,99.90
2022-08-12T12:32:28.971Z,99.90
2022-08-12T12:36:17.069Z,99.90
2022-08-12T12:38:14.022Z,99.90
2022-08-12T12:40:45.931Z,99.90
2022-08-12T12:43:28.908Z,99.90
2022-08-12T12:46:26.617Z,99.90
2022-08-12T12:49:06.816Z,99.90
2022-08-12T12:52:11.203Z,99.90
2022-08-12T12:54:27.388Z,99.90
2022-08-12T12:56:56.572Z,99.90
2022-08-12T12:59:33.838Z,99.90
2022-08-12T13:02:12.256Z,99.90
2022-08-12T13:04:40.959Z,99.90
2022-08-12T13:07:08.431Z,99.90
2022-08-12T13:09:36.750Z,99.90
2022-08-12T13:12:10.660Z,99.90
2022-08-12T13:14:40.048Z,99.90
2022-08-12T13:17:14.829Z,99.90
2022-08-12T13:19:48.400Z,99.90
2022-08-12T13:22:21.737Z,99.90
2022-08-12T13:24:56.920Z,99.90
2022-08-12T13:27:34.658Z,99.90
2022-08-12T13:30:06.993Z,99.90
2022-08-12T13:32:56.562Z,99.90
2022-08-12T13:36:03.361Z,99.90
2022-08-12T13:38:34.238Z,99.90
2022-08-12T13:41:03.859Z,99.90
2022-08-12T13:43:41.328Z,99.90
2022-08-12T13:46:12.182Z,99.90
2022-08-12T13:48:45.229Z,99.90
2022-08-12T13:51:14.605Z,99.90
2022-08-12T13:53:58.143Z,99.90
2022-08-12T13:56:34.893Z,99.90
2022-08-12T13:59:09.723Z,99.90
2022-08-12T14:01:41.145Z,99.90
2022-08-12T14:04:12.491Z,99.90
2022-08-12T14:06:43.367Z,99.90
2022-08-12T14:09:17.275Z,99.90
2022-08-12T14:11:58.416Z,99.90
2022-08-12T14:14:31.387Z,99.90
2022-08-12T14:17:10.740Z,99.90
2022-08-12T14:20:00.511Z,99.90
2022-08-12T14:22:30.330Z,99.90
2022-08-12T14:24:59.171Z,99.90
2022-08-12T14:28:03.909Z,99.90
2022-08-12T14:30:28.770Z,99.90
2022-08-12T14:32:58.212Z,99.90
2022-08-12T14:35:25.974Z,99.90
2022-08-12T14:37:55.280Z,99.90
2022-08-12T14:40:31.516Z,99.90
2022-08-12T14:42:59.453Z,99.90
2022-08-12T14:45:45.582Z,99.90
2022-08-12T14:48:18.848Z,99.90
2022-08-12T14:51:02.865Z,99.90
2022-08-12T14:55:10.923Z,99.90
2022-08-12T14:57:06.013Z,99.90
2022-08-12T14:59:57.358Z,99.90
2022-08-12T15:02:30.129Z,99.90
2022-08-12T15:05:01.607Z,99.90
2022-08-12T15:07:34.151Z,99.90
2022-08-12T15:10:32.030Z,99.90
2022-08-12T15:13:07.504Z,99.90
2022-08-12T15:15:46.146Z,99.90
2022-08-12T15:18:21.707Z,99.90
2022-08-12T15:20:51.605Z,99.90
2022-08-12T15:23:21.432Z,99.90
2022-08-12T15:26:00.066Z,99.90
2022-08-12T15:28:35.985Z,99.90
2022-08-12T15:31:21.526Z,99.90
2022-08-12T15:33:54.078Z,99.90
2022-08-12T15:36:53.875Z,99.90
2022-08-12T15:39:18.531Z,99.90
2022-08-12T15:41:50.030Z,99.90
2022-08-12T15:44:38.061Z,99.90
2022-08-12T15:47:06.225Z,99.90
2022-08-12T15:49:54.306Z,99.90
2022-08-12T15:52:29.651Z,99.90
2022-08-12T15:55:04.932Z,99.90
2022-08-12T15:57:34.200Z,99.90
2022-08-12T16:00:22.601Z,99.90
2022-08-12T16:06:13.249Z,99.90
2022-08-12T16:08:39.729Z,99.90
2022-08-12T16:11:14.821Z,99.90
2022-08-12T16:13:44.264Z,99.90
2022-08-12T16:16:12.501Z,99.90
2022-08-12T16:18:56.265Z,99.90
2022-08-12T16:21:52.421Z,99.90
2022-08-12T16:24:12.573Z,99.90
2022-08-12T16:26:42.069Z,99.90
2022-08-12T16:29:15.286Z,99.90
2022-08-12T16:31:45.238Z,99.90
2022-08-12T16:34:25.720Z,99.90
2022-08-12T16:37:08.069Z,99.90
2022-08-12T16:40:00.875Z,99.90
2022-08-12T16:42:27.900Z,99.90
2022-08-12T16:45:02.929Z,99.90
2022-08-12T16:47:58.215Z,99.90
2022-08-12T16:50:22.989Z,99.90
2022-08-12T16:53:02.340Z,99.90
2022-08-12T16:55:41.919Z,99.90
2022-08-12T17:01:35.204Z,99.90
2022-08-12T17:04:09.339Z,99.90
2022-08-12T17:06:44.088Z,99.90
2022-08-12T17:09:17.070Z,99.90
2022-08-12T17:11:49.316Z,99.90
2022-08-12T17:14:20.487Z,99.90
2022-08-12T17:16:52.500Z,99.90
2022-08-12T17:20:16.265Z,99.90
2022-08-12T17:22:10.027Z,99.90
2022-08-12T17:24:43.946Z,99.90
2022-08-12T17:27:19.647Z,99.90
2022-08-12T17:30:02.926Z,99.90
2022-08-12T17:32:33.903Z,99.90
2022-08-12T17:35:21.204Z,99.90
2022-08-12T17:37:54.808Z,99.90
2022-08-12T17:40:35.927Z,99.90
2022-08-12T17:43:55.587Z,99.90
2022-08-12T17:45:58.962Z,99.90
2022-08-12T17:48:35.231Z,99.90
2022-08-12T17:51:15.496Z,99.90
2022-08-12T17:54:10.407Z,99.90
2022-08-12T17:56:37.654Z,99.90
2022-08-12T17:59:07.542Z,99.90
2022-08-12T18:01:36.838Z,99.90
2022-08-12T18:04:21.432Z,99.90
2022-08-12T18:06:51.056Z,99.90
2022-08-12T18:09:21.823Z,99.90
2022-08-12T18:12:12.508Z,99.90
2022-08-12T18:14:41.118Z,99.90
2022-08-12T18:17:10.238Z,99.90
2022-08-12T18:20:05.141Z,99.90
2022-08-12T18:22:40.965Z,99.90
2022-08-12T18:26:13.989Z,99.90
2022-08-12T18:28:29.133Z,99.90
2022-08-12T18:31:03.416Z,99.90
2022-08-12T18:33:41.499Z,99.90
2022-08-12T18:36:13.378Z,99.90
2022-08-12T18:38:44.682Z,99.90
2022-08-12T18:41:33.721Z,99.90
2022-08-12T18:44:09.443Z,99.90
2022-08-12T18:46:55.253Z,99.90
2022-08-12T18:49:38.029Z,99.90
2022-08-12T18:52:11.639Z,99.90
2022-08-12T18:54:53.869Z,99.90
2022-08-12T18:58:07.619Z,99.90
2022-08-12T19:00:21.010Z,99.90
2022-08-12T19:02:56.010Z,99.90
2022-08-12T19:05:53.196Z,99.90
2022-08-12T19:08:16.250Z,99.90
2022-08-12T19:10:50.319Z,99.90
2022-08-12T19:13:43.613Z,99.90
2022-08-12T19:16:36.698Z,99.90
2022-08-12T19:19:37.530Z,99.90
2022-08-12T19:22:10.165Z,99.90
2022-08-12T19:25:06.323Z,99.90
2022-08-12T19:27:50.679Z,99.90
2022-08-12T19:30:52.938Z,99.90
2022-08-12T19:33:33.346Z,99.90
2022-08-12T19:36:25.220Z,99.90
2022-08-12T19:38:56.655Z,99.90
2022-08-12T19:41:25.781Z,99.90
2022-08-12T19:44:18.458Z,99.90
2022-08-12T19:46:51.992Z,99.90
2022-08-12T19:49:28.960Z,99.90
2022-08-12T19:52:00.849Z,99.90
2022-08-12T19:54:37.669Z,99.90
2022-08-12T19:57:15.868Z,99.90
2022-08-12T20:00:04.459Z,99.90
2022-08-12T20:02:37.506Z,99.90
2022-08-12T20:06:04.939Z,99.90
2022-08-12T20:08:05.704Z,99.90
2022-08-12T20:10:42.499Z,99.90
2022-08-12T20:13:18.608Z,99.90
2022-08-12T20:16:00.009Z,99.90
2022-08-12T20:18:52.951Z,99.90
2022-08-12T20:21:46.134Z,99.90
2022-08-12T20:24:39.136Z,99.90
2022-08-12T20:28:02.810Z,99.90
2022-08-12T20:30:52.710Z,99.90
2022-08-12T20:33:50.233Z,99.90
2022-08-12T20:36:41.189Z,99.90
2022-08-12T20:39:37.375Z,99.90
2022-08-12T20:42:15.717Z,99.90
2022-08-12T20:44:43.692Z,99.90
2022-08-12T20:48:01.646Z,99.90
2022-08-12T20:50:53.385Z,99.90
2022-08-12T20:53:33.124Z,99.90
2022-08-12T20:56:37.567Z,99.90
2022-08-12T20:59:10.592Z,99.90
2022-08-12T21:01:46.380Z,99.90
2022-08-12T21:04:34.267Z,99.90
2022-08-12T21:07:08.415Z,99.90
2022-08-12T21:09:42.858Z,99.90
2022-08-12T21:12:28.021Z,99.90
2022-08-12T21:15:17.015Z,99.90
2022-08-12T21:18:08.018Z,99.90
2022-08-12T21:20:52.663Z,99.90
2022-08-12T21:23:25.338Z,99.90
2022-08-12T21:25:56.391Z,99.90
2022-08-12T21:28:30.914Z,99.90
2022-08-12T21:32:35.306Z,99.90
2022-08-12T21:34:07.508Z,99.90
2022-08-12T21:36:37.853Z,99.90
2022-08-12T21:39:18.428Z,99.90
2022-08-12T21:41:52.649Z,99.90
2022-08-12T21:45:45.640Z,99.90
2022-08-12T21:47:20.934Z,99.90
2022-08-12T21:50:04.369Z,99.90
2022-08-12T21:52:37.000Z,99.90
2022-08-12T21:55:08.527Z,99.90
2022-08-12T21:57:50.705Z,99.90
2022-08-12T22:00:33.031Z,99.90
2022-08-12T22:04:03.194Z,99.90
2022-08-12T22:06:30.654Z,99.90
2022-08-12T22:09:11.277Z,99.90
2022-08-12T22:11:56.033Z,99.90
2022-08-12T22:14:24.365Z,99.90
2022-08-12T22:16:53.951Z,99.90
2022-08-12T22:19:22.988Z,99.90
2022-08-12T22:21:53.962Z,99.90
2022-08-12T22:24:26.968Z,99.90
2022-08-12T22:27:18.464Z,99.90
2022-08-12T22:30:05.833Z,99.90
2022-08-12T22:32:38.924Z,99.90
2022-08-12T22:35:29.233Z,99.90
2022-08-12T22:38:07.884Z,99.90
2022-08-12T22:40:39.544Z,99.90
2022-08-12T22:43:30.268Z,99.90
2022-08-12T22:46:10.088Z,99.90
2022-08-12T22:48:37.524Z,99.90
2022-08-12T22:51:19.684Z,99.90
2022-08-12T22:53:53.025Z,99.90
2022-08-12T22:56:31.068Z,99.90
2022-08-12T22:59:02.684Z,99.90
2022-08-12T23:01:52.430Z,99.90
2022-08-12T23:04:28.542Z,99.90
2022-08-12T23:07:05.379Z,99.90
2022-08-12T23:09:48.326Z,99.90
2022-08-12T23:12:40.775Z,99.90
2022-08-12T23:15:09.324Z,99.90
2022-08-12T23:17:40.641Z,99.90
2022-08-12T23:20:11.322Z,99.90
2022-08-12T23:22:40.222Z,99.90
2022-08-12T23:25:54.117Z,99.90
2022-08-12T23:28:33.488Z,99.90
2022-08-12T23:31:06.394Z,99.90
2022-08-12T23:34:00.600Z,99.90
2022-08-12T23:36:39.245Z,99.90
2022-08-12T23:40:13.497Z,99.90
2022-08-12T23:42:16.826Z,99.90
2022-08-12T23:44:52.483Z,99.90
2022-08-12T23:47:23.709Z,99.90
2022-08-12T23:49:57.959Z,99.90
2022-08-12T23:52:34.737Z,99.90
2022-08-12T23:55:23.555Z,99.90
2022-08-12T23:58:20.598Z,99.90
